createdAt,value
2018-07-21T00:00:28.039Z,1020.18
2018-07-21T00:01:28.623Z,1020.26
2018-07-21T00:02:29.213Z,1020.16
2018-07-21T00:03:29.803Z,1020.23
2018-07-21T00:04:30.381Z,1020.19
2018-07-21T00:05:31.017Z,1020.20
2018-07-21T00:06:31.804Z,1020.17
2018-07-21T00:07:32.416Z,1020.22
2018-07-21T00:08:32.976Z,1020.18
2018-07-21T00:09:33.560Z,1020.17
2018-07-21T00:10:34.146Z,1020.22
2018-07-21T00:11:34.733Z,1020.16
2018-07-21T00:12:35.317Z,1020.18
2018-07-21T00:13:35.904Z,1020.27
2018-07-21T00:14:36.541Z,1020.20
2018-07-21T00:15:37.129Z,1020.18
2018-07-21T00:16:37.714Z,1020.22
2018-07-21T00:17:38.300Z,1020.13
2018-07-21T00:18:38.889Z,1020.16
2018-07-21T00:19:39.474Z,1020.09
2018-07-21T00:20:40.062Z,1020.13
2018-07-21T00:21:40.650Z,1020.11
2018-07-21T00:22:41.236Z,1020.15
2018-07-21T00:23:41.872Z,1020.08
2018-07-21T00:24:42.460Z,1020.12
2018-07-21T00:25:43.047Z,1020.11
2018-07-21T00:26:43.682Z,1020.10
2018-07-21T00:27:44.268Z,1020.18
2018-07-21T00:28:44.851Z,1020.24
2018-07-21T00:29:45.438Z,1020.08
2018-07-21T00:30:46.025Z,1020.07
2018-07-21T00:31:46.660Z,1020.11
2018-07-21T00:32:47.248Z,1020.16
2018-07-21T00:33:47.835Z,1020.18
2018-07-21T00:34:48.423Z,1020.12
2018-07-21T00:35:49.008Z,1020.18
2018-07-21T00:36:49.592Z,1020.08
2018-07-21T00:37:50.181Z,1020.06
2018-07-21T00:38:50.812Z,1020.05
2018-07-21T00:39:51.449Z,1020.06
2018-07-21T00:40:52.035Z,1020.01
2018-07-21T00:41:52.620Z,1020.05
2018-07-21T00:42:53.208Z,1020.01
2018-07-21T00:43:53.844Z,1020.03
2018-07-21T00:44:54.431Z,1020.03
2018-07-21T00:45:55.016Z,1019.99
2018-07-21T00:46:55.604Z,1020.00
2018-07-21T00:47:56.191Z,1020.03
2018-07-21T00:48:56.776Z,1020.03
2018-07-21T00:49:57.361Z,1020.07
2018-07-21T00:50:57.946Z,1020.00
2018-07-21T00:51:58.582Z,1019.98
2018-07-21T00:52:59.168Z,1019.92
2018-07-21T00:53:59.757Z,1019.85
2018-07-21T00:55:00.340Z,1019.89
2018-07-21T00:56:00.925Z,1019.89
2018-07-21T00:57:01.564Z,1019.89
2018-07-21T00:58:02.149Z,1019.94
2018-07-21T00:59:02.782Z,1019.86
2018-07-21T01:00:03.368Z,1019.90
2018-07-21T01:01:04.007Z,1019.94
2018-07-21T01:02:04.594Z,1019.84
2018-07-21T01:03:05.178Z,1019.84
2018-07-21T01:04:05.764Z,1019.86
2018-07-21T01:05:06.353Z,1019.85
2018-07-21T01:06:06.937Z,1019.88
2018-07-21T01:07:07.523Z,1019.88
2018-07-21T01:08:08.160Z,1019.89
2018-07-21T01:09:08.793Z,1019.83
2018-07-21T01:10:09.377Z,1019.83
2018-07-21T01:11:10.026Z,1019.81
2018-07-21T01:12:10.551Z,1019.83
2018-07-21T01:13:11.137Z,1019.78
2018-07-21T01:14:11.771Z,1019.71
2018-07-21T01:15:12.358Z,1019.73
2018-07-21T01:16:13.095Z,1019.77
2018-07-21T01:17:13.678Z,1019.80
2018-07-21T01:18:14.264Z,1019.74
2018-07-21T01:19:14.849Z,1019.74
2018-07-21T01:20:15.437Z,1019.68
2018-07-21T01:21:16.023Z,1019.70
2018-07-21T01:22:16.607Z,1019.70
2018-07-21T01:23:17.194Z,1019.65
2018-07-21T01:24:17.780Z,1019.60
2018-07-21T01:25:18.418Z,1019.65
2018-07-21T01:26:19.002Z,1019.64
2018-07-21T01:27:19.588Z,1019.64
2018-07-21T01:28:20.173Z,1019.67
2018-07-21T01:29:20.758Z,1019.59
2018-07-21T01:30:21.393Z,1019.64
2018-07-21T01:31:21.980Z,1019.64
2018-07-21T01:32:22.565Z,1019.64
2018-07-21T01:33:23.153Z,1019.54
2018-07-21T01:34:23.737Z,1019.57
2018-07-21T01:35:24.326Z,1019.59
2018-07-21T01:36:24.961Z,1019.60
2018-07-21T01:37:25.550Z,1019.57
2018-07-21T01:38:26.135Z,1019.56
2018-07-21T01:39:26.722Z,1019.62
2018-07-21T01:40:27.313Z,1019.49
2018-07-21T01:41:27.902Z,1019.53
2018-07-21T01:42:28.484Z,1019.53
2018-07-21T01:43:29.073Z,1019.52
2018-07-21T01:44:29.657Z,1019.48
2018-07-21T01:45:30.242Z,1019.48
2018-07-21T01:46:30.827Z,1019.57
2018-07-21T01:47:31.464Z,1019.54
2018-07-21T01:48:32.048Z,1019.49
2018-07-21T01:49:32.633Z,1019.46
2018-07-21T01:50:33.220Z,1019.51
2018-07-21T01:51:33.856Z,1019.46
2018-07-21T01:52:34.442Z,1019.46
2018-07-21T01:53:35.030Z,1019.48
2018-07-21T01:54:35.660Z,1019.42
2018-07-21T01:55:36.244Z,1019.49
2018-07-21T01:56:36.879Z,1019.46
2018-07-21T01:57:37.463Z,1019.41
2018-07-21T01:58:38.048Z,1019.46
2018-07-21T02:00:40.254Z,1019.47
2018-07-21T02:01:40.833Z,1019.43
2018-07-21T02:02:41.410Z,1019.50
2018-07-21T02:03:41.990Z,1019.43
2018-07-21T02:04:42.568Z,1019.49
2018-07-21T02:05:43.197Z,1019.50
2018-07-21T02:06:43.779Z,1019.54
2018-07-21T02:07:44.355Z,1019.56
2018-07-21T02:08:44.932Z,1019.51
2018-07-21T02:09:45.511Z,1019.57
2018-07-21T02:10:46.088Z,1019.50
2018-07-21T02:11:46.669Z,1019.52
2018-07-21T02:12:47.354Z,1019.53
2018-07-21T02:13:47.882Z,1019.57
2018-07-21T02:14:48.505Z,1019.42
2018-07-21T02:15:49.084Z,1019.54
2018-07-21T02:16:49.663Z,1019.47
2018-07-21T02:17:50.241Z,1019.50
2018-07-21T02:19:16.661Z,1019.54
2018-07-21T02:20:17.250Z,1019.48
2018-07-21T02:21:17.888Z,1019.49
2018-07-21T02:22:18.474Z,1019.56
2018-07-21T02:23:19.060Z,1019.52
2018-07-21T02:24:19.649Z,1019.53
2018-07-21T02:25:20.236Z,1019.51
2018-07-21T02:26:20.823Z,1019.53
2018-07-21T02:27:21.411Z,1019.51
2018-07-21T02:28:21.997Z,1019.52
2018-07-21T02:29:22.634Z,1019.43
2018-07-21T02:30:23.219Z,1019.47
2018-07-21T02:31:23.809Z,1019.43
2018-07-21T02:32:24.395Z,1019.50
2018-07-21T02:33:24.980Z,1019.51
2018-07-21T02:34:25.566Z,1019.52
2018-07-21T02:35:26.202Z,1019.46
2018-07-21T02:36:26.838Z,1019.48
2018-07-21T02:37:27.423Z,1019.48
2018-07-21T02:38:28.011Z,1019.49
2018-07-21T02:39:28.596Z,1019.48
2018-07-21T02:40:29.181Z,1019.50
2018-07-21T02:41:29.770Z,1019.40
2018-07-21T02:42:30.354Z,1019.39
2018-07-21T02:43:30.938Z,1019.50
2018-07-21T02:44:31.574Z,1019.42
2018-07-21T02:45:32.188Z,1019.34
2018-07-21T02:46:32.746Z,1019.36
2018-07-21T02:47:33.332Z,1019.36
2018-07-21T02:48:33.918Z,1019.35
2018-07-21T02:49:34.503Z,1019.33
2018-07-21T02:50:35.142Z,1019.42
2018-07-21T02:51:35.728Z,1019.41
2018-07-21T02:52:36.313Z,1019.38
2018-07-21T02:53:36.898Z,1019.39
2018-07-21T02:54:37.537Z,1019.35
2018-07-21T02:55:38.126Z,1019.32
2018-07-21T02:56:38.709Z,1019.37
2018-07-21T02:57:39.295Z,1019.30
2018-07-21T02:58:39.880Z,1019.32
2018-07-21T02:59:40.465Z,1019.27
2018-07-21T03:00:41.055Z,1019.27
2018-07-21T03:01:41.641Z,1019.31
2018-07-21T03:02:42.231Z,1019.35
2018-07-21T03:03:42.812Z,1019.23
2018-07-21T03:04:43.451Z,1019.25
2018-07-21T03:05:44.093Z,1019.28
2018-07-21T03:06:44.675Z,1019.25
2018-07-21T03:07:45.260Z,1019.23
2018-07-21T03:08:45.898Z,1019.30
2018-07-21T03:09:46.545Z,1019.22
2018-07-21T03:10:47.165Z,1019.30
2018-07-21T03:11:47.749Z,1019.22
2018-07-21T03:12:48.335Z,1019.23
2018-07-21T03:13:48.921Z,1019.24
2018-07-21T03:14:49.507Z,1019.30
2018-07-21T03:15:50.091Z,1019.28
2018-07-21T03:16:50.678Z,1019.22
2018-07-21T03:17:51.261Z,1019.25
2018-07-21T03:18:51.896Z,1019.30
2018-07-21T03:19:52.482Z,1019.27
2018-07-21T03:20:53.066Z,1019.29
2018-07-21T03:21:53.701Z,1019.27
2018-07-21T03:22:54.288Z,1019.27
2018-07-21T03:23:54.874Z,1019.26
2018-07-21T03:24:55.459Z,1019.21
2018-07-21T03:25:56.055Z,1019.24
2018-07-21T03:26:56.630Z,1019.25
2018-07-21T03:27:57.215Z,1019.24
2018-07-21T03:28:57.801Z,1019.19
2018-07-21T03:29:58.441Z,1019.14
2018-07-21T03:30:59.158Z,1019.21
2018-07-21T03:31:59.662Z,1019.17
2018-07-21T03:33:00.249Z,1019.18
2018-07-21T03:34:00.835Z,1019.24
2018-07-21T03:35:01.421Z,1019.16
2018-07-21T03:36:02.008Z,1019.13
2018-07-21T03:37:02.592Z,1019.15
2018-07-21T03:38:03.177Z,1019.13
2018-07-21T03:39:03.764Z,1019.13
2018-07-21T03:40:04.349Z,1019.14
2018-07-21T03:41:04.988Z,1019.07
2018-07-21T03:42:05.573Z,1019.17
2018-07-21T03:43:06.158Z,1019.16
2018-07-21T03:44:06.793Z,1019.11
2018-07-21T03:45:07.379Z,1019.14
2018-07-21T03:46:07.965Z,1019.13
2018-07-21T03:47:08.550Z,1019.02
2018-07-21T03:48:09.136Z,1019.10
2018-07-21T03:49:09.769Z,1019.17
2018-07-21T03:50:10.355Z,1019.15
2018-07-21T03:51:10.943Z,1019.13
2018-07-21T03:52:11.526Z,1019.15
2018-07-21T03:53:12.116Z,1019.20
2018-07-21T03:54:12.697Z,1019.19
2018-07-21T03:55:13.386Z,1019.20
2018-07-21T03:56:13.914Z,1019.17
2018-07-21T03:57:14.505Z,1019.17
2018-07-21T03:58:15.130Z,1019.24
2018-07-21T03:59:15.765Z,1019.16
2018-07-21T04:00:16.350Z,1019.22
2018-07-21T04:01:16.935Z,1019.23
2018-07-21T04:02:17.561Z,1019.21
2018-07-21T04:03:18.153Z,1019.15
2018-07-21T04:04:18.780Z,1019.23
2018-07-21T04:05:19.369Z,1019.14
2018-07-21T04:07:21.934Z,1019.23
2018-07-21T04:08:22.572Z,1019.19
2018-07-21T04:09:23.157Z,1019.25
2018-07-21T04:10:23.783Z,1019.20
2018-07-21T04:11:24.360Z,1019.21
2018-07-21T04:12:24.943Z,1019.23
2018-07-21T04:13:25.533Z,1019.25
2018-07-21T04:14:26.166Z,1019.25
2018-07-21T04:15:26.753Z,1019.24
2018-07-21T04:16:27.441Z,1019.16
2018-07-21T04:17:27.967Z,1019.24
2018-07-21T04:18:28.645Z,1019.23
2018-07-21T04:19:29.227Z,1019.29
2018-07-21T04:20:29.818Z,1019.25
2018-07-21T04:21:30.461Z,1019.24
2018-07-21T04:22:31.032Z,1019.28
2018-07-21T04:23:31.618Z,1019.30
2018-07-21T04:24:32.198Z,1019.32
2018-07-21T04:25:32.781Z,1019.30
2018-07-21T04:26:33.361Z,1019.27
2018-07-21T04:27:33.950Z,1019.28
2018-07-21T04:28:34.527Z,1019.22
2018-07-21T04:29:35.163Z,1019.22
2018-07-21T04:30:35.743Z,1019.21
2018-07-21T04:31:36.328Z,1019.26
2018-07-21T04:32:36.907Z,1019.30
2018-07-21T04:33:37.495Z,1019.29
2018-07-21T04:34:38.079Z,1019.32
2018-07-21T04:35:38.662Z,1019.29
2018-07-21T04:36:39.297Z,1019.27
2018-07-21T04:37:39.884Z,1019.26
2018-07-21T04:38:40.471Z,1019.31
2018-07-21T04:39:41.103Z,1019.26
2018-07-21T04:40:41.683Z,1019.25
2018-07-21T04:41:42.273Z,1019.25
2018-07-21T04:42:42.852Z,1019.24
2018-07-21T04:43:43.439Z,1019.24
2018-07-21T04:44:44.076Z,1019.29
2018-07-21T04:45:44.656Z,1019.26
2018-07-21T04:46:45.239Z,1019.29
2018-07-21T04:47:45.827Z,1019.28
2018-07-21T04:48:46.412Z,1019.29
2018-07-21T04:49:46.996Z,1019.24
2018-07-21T04:50:47.583Z,1019.40
2018-07-21T04:51:48.163Z,1019.35
2018-07-21T04:52:48.754Z,1019.32
2018-07-21T04:53:49.433Z,1019.30
2018-07-21T04:54:49.970Z,1019.30
2018-07-21T04:55:50.606Z,1019.42
2018-07-21T04:56:51.192Z,1019.40
2018-07-21T04:57:51.770Z,1019.42
2018-07-21T04:58:52.359Z,1019.40
2018-07-21T04:59:52.944Z,1019.47
2018-07-21T05:00:53.572Z,1019.42
2018-07-21T05:01:54.164Z,1019.41
2018-07-21T05:02:54.747Z,1019.48
2018-07-21T05:03:55.328Z,1019.52
2018-07-21T05:04:55.912Z,1019.43
2018-07-21T05:05:56.492Z,1019.42
2018-07-21T05:06:57.082Z,1019.53
2018-07-21T05:07:57.669Z,1019.43
2018-07-21T05:08:58.251Z,1019.58
2018-07-21T05:09:58.868Z,1019.59
2018-07-21T05:10:59.417Z,1019.52
2018-07-21T05:12:00.005Z,1019.54
2018-07-21T05:13:00.633Z,1019.57
2018-07-21T05:14:01.221Z,1019.54
2018-07-21T05:15:01.856Z,1019.58
2018-07-21T05:16:02.442Z,1019.58
2018-07-21T05:17:03.076Z,1019.51
2018-07-21T05:18:03.660Z,1019.56
2018-07-21T05:19:04.245Z,1019.57
2018-07-21T05:20:04.874Z,1019.51
2018-07-21T05:21:05.409Z,1019.56
2018-07-21T05:22:05.993Z,1019.55
2018-07-21T05:23:06.623Z,1019.57
2018-07-21T05:24:07.261Z,1019.53
2018-07-21T05:25:07.847Z,1019.57
2018-07-21T05:26:08.428Z,1019.56
2018-07-21T05:27:09.017Z,1019.53
2018-07-21T05:28:09.597Z,1019.53
2018-07-21T05:29:10.188Z,1019.56
2018-07-21T05:30:10.774Z,1019.55
2018-07-21T05:31:11.457Z,1019.48
2018-07-21T05:32:12.038Z,1019.50
2018-07-21T05:33:12.623Z,1019.47
2018-07-21T05:34:13.310Z,1019.57
2018-07-21T05:35:13.894Z,1019.46
2018-07-21T05:36:14.529Z,1019.47
2018-07-21T05:37:15.113Z,1019.52
2018-07-21T05:38:15.688Z,1019.54
2018-07-21T05:39:16.276Z,1019.57
2018-07-21T05:40:16.864Z,1019.55
2018-07-21T05:41:17.453Z,1019.52
2018-07-21T05:42:18.029Z,1019.56
2018-07-21T05:43:18.620Z,1019.50
2018-07-21T05:44:19.244Z,1019.53
2018-07-21T05:45:19.932Z,1019.54
2018-07-21T05:46:20.518Z,1019.50
2018-07-21T05:47:21.103Z,1019.51
2018-07-21T05:48:21.687Z,1019.55
2018-07-21T05:49:22.320Z,1019.51
2018-07-21T05:50:22.907Z,1019.59
2018-07-21T05:51:23.493Z,1019.53
2018-07-21T05:52:24.123Z,1019.61
2018-07-21T05:53:24.712Z,1019.58
2018-07-21T05:54:25.309Z,1019.52
2018-07-21T05:55:25.882Z,1019.65
2018-07-21T05:56:26.463Z,1019.56
2018-07-21T05:57:27.051Z,1019.58
2018-07-21T05:58:27.635Z,1019.69
2018-07-21T05:59:28.221Z,1019.67
2018-07-21T06:00:28.810Z,1019.69
2018-07-21T06:01:29.394Z,1019.58
2018-07-21T06:02:29.981Z,1019.62
2018-07-21T06:03:30.566Z,1019.60
2018-07-21T06:04:31.149Z,1019.68
2018-07-21T06:05:31.731Z,1019.60
2018-07-21T06:06:32.319Z,1019.67
2018-07-21T06:07:32.950Z,1019.68
2018-07-21T06:08:33.597Z,1019.60
2018-07-21T06:09:34.171Z,1019.63
2018-07-21T06:10:34.752Z,1019.62
2018-07-21T06:11:35.333Z,1019.57
2018-07-21T06:12:35.914Z,1019.61
2018-07-21T06:13:36.552Z,1019.52
2018-07-21T06:14:37.135Z,1019.62
2018-07-21T06:15:37.717Z,1019.56
2018-07-21T06:16:38.299Z,1019.56
2018-07-21T06:17:38.887Z,1019.62
2018-07-21T06:18:39.508Z,1019.69
2018-07-21T06:19:40.057Z,1019.60
2018-07-21T06:20:40.637Z,1019.62
2018-07-21T06:21:41.226Z,1019.63
2018-07-21T06:22:41.810Z,1019.68
2018-07-21T06:23:42.400Z,1019.70
2018-07-21T06:24:43.032Z,1019.65
2018-07-21T06:25:43.618Z,1019.67
2018-07-21T06:26:44.203Z,1019.68
2018-07-21T06:27:44.785Z,1019.74
2018-07-21T06:28:45.376Z,1019.76
2018-07-21T06:29:45.956Z,1019.75
2018-07-21T06:30:46.592Z,1019.71
2018-07-21T06:31:47.170Z,1019.78
2018-07-21T06:32:47.781Z,1019.75
2018-07-21T06:33:48.427Z,1019.74
2018-07-21T06:34:49.014Z,1019.74
2018-07-21T06:35:49.594Z,1019.74
2018-07-21T06:36:50.178Z,1019.76
2018-07-21T06:37:50.762Z,1019.77
2018-07-21T06:38:51.344Z,1019.81
2018-07-21T06:39:51.931Z,1019.80
2018-07-21T06:40:52.517Z,1019.85
2018-07-21T06:41:53.092Z,1019.91
2018-07-21T06:42:53.680Z,1019.87
2018-07-21T06:43:54.276Z,1019.83
2018-07-21T06:44:54.842Z,1019.85
2018-07-21T06:45:55.431Z,1019.93
2018-07-21T06:46:56.068Z,1019.81
2018-07-21T06:47:56.700Z,1019.82
2018-07-21T06:48:57.335Z,1019.82
2018-07-21T06:49:57.917Z,1019.86
2018-07-21T06:50:58.501Z,1019.84
2018-07-21T06:51:59.086Z,1019.89
2018-07-21T06:52:59.672Z,1019.86
2018-07-21T06:54:00.256Z,1019.89
2018-07-21T06:55:00.841Z,1019.95
2018-07-21T06:56:01.421Z,1019.90
2018-07-21T06:57:02.004Z,1019.89
2018-07-21T06:58:02.591Z,1019.83
2018-07-21T06:59:03.216Z,1019.87
2018-07-21T07:00:03.762Z,1019.81
2018-07-21T07:01:04.347Z,1019.84
2018-07-21T07:02:04.982Z,1019.83
2018-07-21T07:03:05.562Z,1019.94
2018-07-21T07:04:06.144Z,1019.99
2018-07-21T07:05:06.733Z,1019.89
2018-07-21T07:06:07.369Z,1019.98
2018-07-21T07:07:07.954Z,1019.88
2018-07-21T07:08:08.583Z,1019.90
2018-07-21T07:09:09.166Z,1019.90
2018-07-21T07:10:09.756Z,1019.90
2018-07-21T07:11:10.385Z,1020.01
2018-07-21T07:12:10.971Z,1020.02
2018-07-21T07:13:11.552Z,1020.04
2018-07-21T07:14:12.133Z,1020.00
2018-07-21T07:15:12.724Z,1019.99
2018-07-21T07:16:13.315Z,1019.97
2018-07-21T07:17:13.932Z,1020.03
2018-07-21T07:18:14.519Z,1020.04
2018-07-21T07:19:15.106Z,1020.06
2018-07-21T07:20:15.683Z,1020.05
2018-07-21T07:21:16.260Z,1020.05
2018-07-21T07:22:16.847Z,1020.07
2018-07-21T07:23:17.432Z,1020.09
2018-07-21T07:24:18.065Z,1020.11
2018-07-21T07:25:18.649Z,1020.09
2018-07-21T07:26:19.286Z,1020.17
2018-07-21T07:27:19.923Z,1020.09
2018-07-21T07:28:20.506Z,1020.11
2018-07-21T07:29:21.084Z,1020.15
2018-07-21T07:30:21.665Z,1020.15
2018-07-21T07:31:22.246Z,1020.15
2018-07-21T07:32:22.832Z,1020.14
2018-07-21T07:33:23.419Z,1020.17
2018-07-21T07:34:24.004Z,1020.12
2018-07-21T07:35:24.587Z,1020.17
2018-07-21T07:36:25.163Z,1020.22
2018-07-21T07:37:25.746Z,1020.21
2018-07-21T07:38:26.335Z,1020.19
2018-07-21T07:39:26.916Z,1020.19
2018-07-21T07:40:27.501Z,1020.15
2018-07-21T07:41:28.088Z,1020.21
2018-07-21T07:42:28.668Z,1020.17
2018-07-21T07:43:29.305Z,1020.14
2018-07-21T07:44:29.891Z,1020.15
2018-07-21T07:45:30.526Z,1020.18
2018-07-21T07:46:31.154Z,1020.14
2018-07-21T07:47:31.740Z,1020.22
2018-07-21T07:48:32.324Z,1020.16
2018-07-21T07:49:32.909Z,1020.21
2018-07-21T07:50:33.488Z,1020.13
2018-07-21T07:51:34.076Z,1020.21
2018-07-21T07:52:34.661Z,1020.19
2018-07-21T07:53:35.249Z,1020.20
2018-07-21T07:54:35.843Z,1020.10
2018-07-21T07:55:36.417Z,1020.12
2018-07-21T07:56:37.003Z,1020.15
2018-07-21T07:57:37.585Z,1020.26
2018-07-21T07:58:38.224Z,1020.24
2018-07-21T07:59:38.805Z,1020.24
2018-07-21T08:00:39.394Z,1020.27
2018-07-21T08:01:39.979Z,1020.22
2018-07-21T08:02:40.564Z,1020.24
2018-07-21T08:03:41.200Z,1020.26
2018-07-21T08:04:41.783Z,1020.31
2018-07-21T08:05:42.371Z,1020.28
2018-07-21T08:06:42.948Z,1020.29
2018-07-21T08:07:43.535Z,1020.27
2018-07-21T08:08:44.170Z,1020.23
2018-07-21T08:09:44.753Z,1020.24
2018-07-21T08:10:45.340Z,1020.29
2018-07-21T08:11:45.921Z,1020.34
2018-07-21T08:12:46.504Z,1020.35
2018-07-21T08:13:47.083Z,1020.30
2018-07-21T08:14:47.669Z,1020.32
2018-07-21T08:15:48.251Z,1020.37
2018-07-21T08:16:48.838Z,1020.29
2018-07-21T08:17:49.419Z,1020.25
2018-07-21T08:18:50.004Z,1020.34
2018-07-21T08:19:50.589Z,1020.26
2018-07-21T08:20:51.173Z,1020.26
2018-07-21T08:21:51.806Z,1020.23
2018-07-21T08:22:52.394Z,1020.28
2018-07-21T08:23:53.032Z,1020.32
2018-07-21T08:24:53.619Z,1020.37
2018-07-21T08:25:54.249Z,1020.31
2018-07-21T08:26:54.831Z,1020.28
2018-07-21T08:27:55.420Z,1020.28
2018-07-21T08:28:56.019Z,1020.24
2018-07-21T08:29:56.627Z,1020.24
2018-07-21T08:30:57.218Z,1020.31
2018-07-21T08:31:57.794Z,1020.27
2018-07-21T08:32:58.382Z,1020.36
2018-07-21T08:33:58.968Z,1020.33
2018-07-21T08:34:59.602Z,1020.32
2018-07-21T08:36:00.190Z,1020.38
2018-07-21T08:37:00.768Z,1020.31
2018-07-21T08:38:01.357Z,1020.31
2018-07-21T08:39:01.991Z,1020.32
2018-07-21T08:40:02.569Z,1020.27
2018-07-21T08:41:03.158Z,1020.34
2018-07-21T08:42:03.787Z,1020.37
2018-07-21T08:43:04.372Z,1020.39
2018-07-21T08:44:04.957Z,1020.34
2018-07-21T08:45:05.537Z,1020.34
2018-07-21T08:46:06.175Z,1020.41
2018-07-21T08:47:06.755Z,1020.32
2018-07-21T08:48:07.345Z,1020.35
2018-07-21T08:49:07.927Z,1020.39
2018-07-21T08:50:08.513Z,1020.37
2018-07-21T08:51:09.094Z,1020.33
2018-07-21T08:52:09.684Z,1020.37
2018-07-21T08:53:10.306Z,1020.32
2018-07-21T08:54:10.894Z,1020.35
2018-07-21T08:55:11.477Z,1020.35
2018-07-21T08:56:12.063Z,1020.35
2018-07-21T08:57:12.648Z,1020.33
2018-07-21T08:58:13.234Z,1020.42
2018-07-21T08:59:13.862Z,1020.41
2018-07-21T09:00:14.502Z,1020.42
2018-07-21T09:01:15.134Z,1020.43
2018-07-21T09:02:15.713Z,1020.44
2018-07-21T09:03:16.301Z,1020.40
2018-07-21T09:04:16.888Z,1020.44
2018-07-21T09:05:17.468Z,1020.45
2018-07-21T09:06:18.092Z,1020.43
2018-07-21T09:07:18.674Z,1020.43
2018-07-21T09:08:19.264Z,1020.41
2018-07-21T09:09:19.892Z,1020.53
2018-07-21T09:10:20.479Z,1020.45
2018-07-21T09:11:21.066Z,1020.41
2018-07-21T09:12:21.653Z,1020.49
2018-07-21T09:13:22.233Z,1020.41
2018-07-21T09:14:22.817Z,1020.48
2018-07-21T09:15:23.399Z,1020.44
2018-07-21T09:16:24.033Z,1020.48
2018-07-21T09:17:24.666Z,1020.50
2018-07-21T09:18:25.303Z,1020.45
2018-07-21T09:19:25.887Z,1020.50
2018-07-21T09:20:26.472Z,1020.48
2018-07-21T09:21:27.072Z,1020.49
2018-07-21T09:22:27.696Z,1020.50
2018-07-21T09:23:28.287Z,1020.46
2018-07-21T09:24:28.867Z,1020.51
2018-07-21T09:25:29.453Z,1020.59
2018-07-21T09:26:30.041Z,1020.56
2018-07-21T09:27:30.633Z,1020.53
2018-07-21T09:28:31.262Z,1020.55
2018-07-21T09:29:31.843Z,1020.47
2018-07-21T09:30:32.428Z,1020.47
2018-07-21T09:31:33.009Z,1020.53
2018-07-21T09:32:33.601Z,1020.51
2018-07-21T09:33:34.239Z,1020.45
2018-07-21T09:34:34.918Z,1020.47
2018-07-21T09:35:35.503Z,1020.47
2018-07-21T09:36:36.092Z,1020.45
2018-07-21T09:37:36.726Z,1020.49
2018-07-21T09:38:37.314Z,1020.46
2018-07-21T09:39:37.897Z,1020.47
2018-07-21T09:40:38.482Z,1020.50
2018-07-21T09:41:39.066Z,1020.45
2018-07-21T09:42:39.652Z,1020.48
2018-07-21T09:43:40.235Z,1020.47
2018-07-21T09:44:40.824Z,1020.37
2018-07-21T09:45:41.416Z,1020.34
2018-07-21T09:46:42.002Z,1020.39
2018-07-21T09:47:42.585Z,1020.40
2018-07-21T09:48:43.179Z,1020.41
2018-07-21T09:49:43.768Z,1020.45
2018-07-21T09:50:44.355Z,1020.40
2018-07-21T09:51:44.998Z,1020.38
2018-07-21T09:52:45.631Z,1020.42
2018-07-21T09:53:46.221Z,1020.43
2018-07-21T09:54:46.814Z,1020.39
2018-07-21T09:55:47.452Z,1020.31
2018-07-21T09:56:47.989Z,1020.33
2018-07-21T09:57:48.584Z,1020.30
2018-07-21T09:58:49.210Z,1020.38
2018-07-21T09:59:49.854Z,1020.30
2018-07-21T10:00:50.445Z,1020.30
2018-07-21T10:01:51.086Z,1020.31
2018-07-21T10:02:51.674Z,1020.28
2018-07-21T10:03:52.262Z,1020.30
2018-07-21T10:04:52.854Z,1020.27
2018-07-21T10:05:53.489Z,1020.37
2018-07-21T10:06:54.078Z,1020.29
2018-07-21T10:07:54.721Z,1020.26
2018-07-21T10:08:55.307Z,1020.29
2018-07-21T10:09:55.950Z,1020.40
2018-07-21T10:10:56.543Z,1020.37
2018-07-21T10:11:57.132Z,1020.39
2018-07-21T10:12:57.723Z,1020.28
2018-07-21T10:13:58.314Z,1020.39
2018-07-21T10:14:58.905Z,1020.34
2018-07-21T10:15:59.531Z,1020.38
2018-07-21T10:17:00.135Z,1020.38
2018-07-21T10:18:00.722Z,1020.34
2018-07-21T10:19:01.365Z,1020.41
2018-07-21T10:20:01.998Z,1020.38
2018-07-21T10:21:02.583Z,1020.35
2018-07-21T10:22:03.188Z,1020.29
2018-07-21T10:23:03.764Z,1020.29
2018-07-21T10:24:04.350Z,1020.35
2018-07-21T10:25:04.944Z,1020.37
2018-07-21T10:26:05.535Z,1020.32
2018-07-21T10:27:06.129Z,1020.41
2018-07-21T10:28:06.787Z,1020.28
2018-07-21T10:29:07.400Z,1020.40
2018-07-21T10:30:08.165Z,1020.35
2018-07-21T10:31:08.728Z,1020.35
2018-07-21T10:32:09.371Z,1020.35
2018-07-21T10:33:09.982Z,1020.32
2018-07-21T10:34:10.606Z,1020.30
2018-07-21T10:35:11.197Z,1020.30
2018-07-21T10:36:11.786Z,1020.35
2018-07-21T10:37:12.423Z,1020.36
2018-07-21T10:38:13.074Z,1020.37
2018-07-21T10:39:13.699Z,1020.34
2018-07-21T10:40:14.291Z,1020.42
2018-07-21T10:41:14.878Z,1020.34
2018-07-21T10:42:15.471Z,1020.40
2018-07-21T10:43:16.064Z,1020.38
2018-07-21T10:44:16.705Z,1020.47
2018-07-21T10:45:17.298Z,1020.38
2018-07-21T10:46:17.890Z,1020.44
2018-07-21T10:47:18.528Z,1020.40
2018-07-21T10:48:19.175Z,1020.44
2018-07-21T10:49:19.759Z,1020.30
2018-07-21T10:50:20.353Z,1020.38
2018-07-21T10:51:20.946Z,1020.27
2018-07-21T10:52:21.538Z,1020.28
2018-07-21T10:53:22.132Z,1020.35
2018-07-21T10:54:22.776Z,1020.29
2018-07-21T10:55:23.367Z,1020.33
2018-07-21T10:56:23.959Z,1020.34
2018-07-21T10:57:24.554Z,1020.39
2018-07-21T10:58:25.143Z,1020.33
2018-07-21T10:59:25.747Z,1020.33
2018-07-21T11:00:26.379Z,1020.36
2018-07-21T11:01:26.974Z,1020.35
2018-07-21T11:02:27.573Z,1020.36
2018-07-21T11:03:28.164Z,1020.29
2018-07-21T11:05:30.387Z,1020.29
2018-07-21T11:06:30.984Z,1020.39
2018-07-21T11:07:31.629Z,1020.38
2018-07-21T11:08:32.217Z,1020.48
2018-07-21T11:09:32.816Z,1020.54
2018-07-21T11:10:33.413Z,1020.47
2018-07-21T11:11:34.010Z,1020.46
2018-07-21T11:12:34.600Z,1020.43
2018-07-21T11:13:35.189Z,1020.39
2018-07-21T11:14:35.782Z,1020.43
2018-07-21T11:15:36.494Z,1020.38
2018-07-21T11:16:37.027Z,1020.35
2018-07-21T11:17:37.625Z,1020.42
2018-07-21T11:18:38.219Z,1020.42
2018-07-21T11:19:52.639Z,1020.31
2018-07-21T11:20:53.224Z,1020.36
2018-07-21T11:21:53.817Z,1020.36
2018-07-21T11:22:54.400Z,1020.35
2018-07-21T11:23:54.988Z,1020.43
2018-07-21T11:24:55.635Z,1020.41
2018-07-21T11:25:56.322Z,1020.37
2018-07-21T11:26:56.916Z,1020.37
2018-07-21T11:27:57.553Z,1020.33
2018-07-21T11:28:58.143Z,1020.44
2018-07-21T11:29:58.736Z,1020.28
2018-07-21T11:30:59.431Z,1020.39
2018-07-21T11:32:00.077Z,1020.46
2018-07-21T11:33:00.767Z,1020.35
2018-07-21T11:34:01.357Z,1020.33
2018-07-21T11:35:01.949Z,1020.32
2018-07-21T11:36:02.848Z,1020.32
2018-07-21T11:37:03.139Z,1020.34
2018-07-21T11:38:03.731Z,1020.41
2018-07-21T11:39:04.326Z,1020.35
2018-07-21T11:40:04.923Z,1020.40
2018-07-21T11:41:05.505Z,1020.46
2018-07-21T11:42:06.097Z,1020.40
2018-07-21T11:43:06.686Z,1020.37
2018-07-21T11:44:07.283Z,1020.42
2018-07-21T11:45:07.869Z,1020.36
2018-07-21T11:46:08.463Z,1020.37
2018-07-21T11:47:22.830Z,1020.37
2018-07-21T11:48:23.421Z,1020.41
2018-07-21T11:49:24.071Z,1020.38
2018-07-21T11:50:24.720Z,1020.46
2018-07-21T11:51:25.313Z,1020.38
2018-07-21T11:52:25.961Z,1020.32
2018-07-21T11:53:48.388Z,1020.37
2018-07-21T11:54:48.979Z,1020.35
2018-07-21T11:55:49.573Z,1020.38
2018-07-21T11:56:50.176Z,1020.33
2018-07-21T11:57:50.770Z,1020.38
2018-07-21T11:58:51.367Z,1020.43
2018-07-21T11:59:51.963Z,1020.31
2018-07-21T12:00:52.562Z,1020.43
2018-07-21T12:01:53.202Z,1020.41
2018-07-21T12:03:23.547Z,1020.44
2018-07-21T12:04:24.153Z,1020.33
2018-07-21T12:05:24.773Z,1020.34
2018-07-21T12:06:25.361Z,1020.29
2018-07-21T12:07:25.965Z,1020.26
2018-07-21T12:08:26.564Z,1020.26
2018-07-21T12:09:27.320Z,1020.37
2018-07-21T12:10:27.975Z,1020.33
2018-07-21T12:11:28.571Z,1020.31
2018-07-21T12:12:29.171Z,1020.35
2018-07-21T12:13:29.854Z,1020.27
2018-07-21T12:14:30.423Z,1020.34
2018-07-21T12:15:31.076Z,1020.36
2018-07-21T12:16:31.677Z,1020.20
2018-07-21T12:17:32.271Z,1020.37